Terminal Aerodrome Forecast
Issued by NWS

Home | Current Version | Previous Version | Text Only | Print | Product List | Glossary Off
Versions: 1 2 3 4 5 6 7 8 9 10 11 12 13 14 15 16 17 18 19 20 21 22

431
FTUS43 KICT 150352 AAA
TAFHUT
TAF AMD
KHUT 150352Z 1504/1524 VRB03KT P6SM OVC022
      TEMPO 1504/1508 5SM -FZRA OVC015
     FM150800 VRB04KT P6SM OVC010
      TEMPO 1508/1512 3SM -FZRA OVC008
     FM151200 05005KT 3SM -FZRA BR OVC005
     FM151900 06006KT 3SM -RA OVC006=

USA.gov is the U.S. government's official web portal to all federal, state and local government web resources and services.